Terminal Aerodrome Forecast
Issued by NWS

Home | Current Version | Previous Version | Graphics & Text | Print | Product List | Glossary On
Versions: 1 2 3 4 5 6 7 8 9 10 11 12 13 14 15
449
FTUS42 KMHX 142341
TAFPGV
TAF
KPGV 142341Z 1500/1524 VRB03KT P6SM BKN011
     FM150100 00000KT P6SM BKN009
     FM150600 00000KT 4SM BR SCT003 BKN008
     FM151000 00000KT 2SM BR SCT003 BKN005
     FM151300 VRB03KT P6SM SCT005
     FM151400 VRB04KT P6SM SCT029
      AMD LTD TO CLD VIS AND WIND=

USA.gov is the U.S. government's official web portal to all federal, state and local government web resources and services.